Virtual Washington ARTCC

Weather

KBWI 231254Z 07007KT 2SM -DZ BR OVC005 21/20 A2984 RMK AO2 DZB19 SLP103 P0000 T02060200
KDCA 231252Z 03005KT 8SM OVC005 22/20 A2984 RMK AO2 DZE52 SLP104 P0000 T02170200
KIAD 231252Z 33004KT 1/4SM R01R/P6000FT BR OVC004 19/19 A2985 RMK AO2 SFC VIS 2 SLP107 T01890189 $
KORF 231251Z 22012KT 10SM CLR 27/26 A2983 RMK AO2 SLP102 T02720256
KRDU 231251Z 22011KT 10SM FEW110 BKN250 27/22 A2988 RMK AO2 SLP111 T02720217

Events



ZDC Activity

No controllers online.

News



The information contained on all pages of this website is to be used for flight simulation purposes only on the VATSIM network. It is not intended nor should it be used for real world navigation.This site is not affiliated with the FAA, the actual Washington Center or any governing aviation body. All content contained herein is approved only for use on the VATSIM network. ©2016 Virtual Washington ARTCC -- Source Code © 2016-2017 W. Guisbond and R. Rump.
By using this website you agree to all VATSIM Privacy Regulations as can be found on https://www.vatsim.net/documents/privacy-policy. This website uses cookie$